Arthur's Way — WDI2628 — position and weather

sailwx.info

Track history (hours):
 
Tides and Currents Weather Stations Pressure Air Temp Water Temp Dewpoint Dewpoint Depression Visibility Wind Speed Wind Dir Waves Ship Positions

Arthur's Way

Owner: Krantz Motor Yachts LLC, Saint James, NY. More information available from US FCC via Universal Licensing System and Coast Guard Vessel Documentation Center.

Last reported at 2017-Sep-07 20:40 UTC. Time now 2017-Sep-20 01:55 UTC.
Position N 26°06' W 080°10'.
Warning: this ship's position is 12 days out of date.

Length 29 m; draft 1.7 m.

Type: Pleasure craft. MMSI: 367680080.

Date/timePositionNaut miles runAvg speedWind from/ knotsBaromVisibWave heightAir tempDewpointWater temp
2017-Sep-07 20:40N 26°06' W 080°10'0 0.0
2017-Sep-07 20:13N 26°06' W 080°10'0 0.5
2017-Sep-07 19:59N 26°06' W 080°10'0 0.0
2017-Sep-07 19:17N 26°06' W 080°10'0 0.0
2017-Sep-07 18:59N 26°06' W 080°10'0 0.0
2017-Sep-07 18:25N 26°06' W 080°10'1 1.4
2017-Sep-07 18:00N 26°06' W 080°10'1 2.5
2017-Sep-07 17:29N 26°07' W 080°08'2 3.3
2017-Sep-07 17:00N 26°07' W 080°06'0 0.0
2017-Sep-06 20:03N 26°07' W 080°06'0 0.0
2017-Sep-06 19:34N 26°07' W 080°06'0 0.0
2017-Sep-06 19:26N 26°07' W 080°06'5 4.4
2017-Sep-06 18:21N 26°12' W 080°06'7 5.4
2017-Sep-06 17:00N 26°19' W 080°05'  
Track history (hours):
 
Tides and Currents Weather Stations Pressure Air Temp Water Temp Dewpoint Dewpoint Depression Visibility Wind Speed Wind Dir Waves Ship Positions

Arthur's Way

Owner: Krantz Motor Yachts LLC, Saint James, NY. More information available from US FCC via Universal Licensing System and Coast Guard Vessel Documentation Center.

Last reported at 2017-Sep-07 20:40 UTC. Time now 2017-Sep-20 01:55 UTC.
Position N 26°06' W 080°10'.
Warning: this ship's position is 12 days out of date.

Length 29 m; draft 1.7 m.

Type: Pleasure craft. MMSI: 367680080.

Date/timePositionNaut miles runAvg speedWind from/ knotsBaromVisibWave heightAir tempDewpointWater temp
2017-Sep-07 20:40N 26°06' W 080°10'0 0.0
2017-Sep-07 20:13N 26°06' W 080°10'0 0.5
2017-Sep-07 19:59N 26°06' W 080°10'0 0.0
2017-Sep-07 19:17N 26°06' W 080°10'0 0.0
2017-Sep-07 18:59N 26°06' W 080°10'0 0.0
2017-Sep-07 18:25N 26°06' W 080°10'1 1.4
2017-Sep-07 18:00N 26°06' W 080°10'1 2.5
2017-Sep-07 17:29N 26°07' W 080°08'2 3.3
2017-Sep-07 17:00N 26°07' W 080°06'0 0.0
2017-Sep-06 20:03N 26°07' W 080°06'0 0.0
2017-Sep-06 19:34N 26°07' W 080°06'0 0.0
2017-Sep-06 19:26N 26°07' W 080°06'5 4.4
2017-Sep-06 18:21N 26°12' W 080°06'7 5.4
2017-Sep-06 17:00N 26°19' W 080°05'  

Dump ship's entire track history